createdAt,value
2019-01-11T00:01:25.063Z,4.10
2019-01-11T00:04:06.082Z,4.27
2019-01-11T00:06:46.181Z,3.83
2019-01-11T00:09:26.015Z,4.37
2019-01-11T00:12:05.887Z,4.17
2019-01-11T00:14:45.942Z,4.07
2019-01-11T00:17:26.437Z,4.30
2019-01-11T00:20:07.713Z,4.43
2019-01-11T00:22:48.532Z,4.40
2019-01-11T00:28:27.594Z,4.53
2019-01-11T00:31:07.908Z,4.67
2019-01-11T00:33:48.181Z,4.27
2019-01-11T00:36:28.893Z,4.07
2019-01-11T00:39:08.939Z,4.87
2019-01-11T00:41:48.788Z,4.90
2019-01-11T00:44:28.902Z,4.80
2019-01-11T00:47:08.927Z,5.07
2019-01-11T00:49:49.782Z,4.93
2019-01-11T00:52:30.341Z,4.90
2019-01-11T00:55:10.549Z,5.40
2019-01-11T00:57:50.830Z,4.63
2019-01-11T01:00:30.842Z,4.87
2019-01-11T01:03:10.886Z,5.27
2019-01-11T01:05:50.893Z,4.73
2019-01-11T01:08:31.062Z,5.03
2019-01-11T01:11:11.265Z,5.10
2019-01-11T01:13:51.497Z,4.70
2019-01-11T01:16:31.453Z,5.30
2019-01-11T01:19:11.482Z,5.20
2019-01-11T01:21:51.598Z,5.03
2019-01-11T01:24:31.558Z,5.23
2019-01-11T01:27:11.463Z,5.13
2019-01-11T01:29:51.494Z,5.57
2019-01-11T01:32:31.384Z,5.73
2019-01-11T01:35:11.390Z,5.80
2019-01-11T01:37:51.291Z,5.40
2019-01-11T01:40:31.327Z,5.50
2019-01-11T01:43:11.292Z,5.63
2019-01-11T01:45:51.430Z,6.13
2019-01-11T01:48:32.458Z,5.70
2019-01-11T01:51:13.612Z,5.70
2019-01-11T01:53:53.811Z,5.67
2019-01-11T01:56:33.823Z,6.37
2019-01-11T01:59:13.837Z,5.77
2019-01-11T02:01:53.697Z,6.03
2019-01-11T02:04:33.908Z,6.53
2019-01-11T02:07:13.862Z,6.60
2019-01-11T02:09:53.926Z,6.20
2019-01-11T02:12:33.922Z,6.17
2019-01-11T02:15:14.889Z,6.33
2019-01-11T02:17:55.084Z,6.37
2019-01-11T02:20:34.943Z,6.27
2019-01-11T02:23:15.970Z,5.80
2019-01-11T02:25:56.225Z,5.40
2019-01-11T02:28:36.293Z,5.77
2019-01-11T02:31:16.199Z,5.70
2019-01-11T02:33:56.355Z,5.60
2019-01-11T02:36:36.238Z,5.57
2019-01-11T02:39:16.263Z,5.20
2019-01-11T02:41:57.451Z,5.90
2019-01-11T02:44:37.469Z,6.47
2019-01-11T02:47:17.699Z,5.53
2019-01-11T02:49:57.687Z,5.47
2019-01-11T02:52:38.123Z,5.97
2019-01-11T02:55:17.857Z,6.10
2019-01-11T02:57:57.904Z,6.40
2019-01-11T03:00:38.208Z,6.77
2019-01-11T03:03:18.074Z,6.80
2019-01-11T03:05:58.168Z,6.90
2019-01-11T03:08:38.107Z,6.47
2019-01-11T03:11:18.072Z,6.53
2019-01-11T03:13:58.120Z,6.70
2019-01-11T03:16:38.170Z,6.70
2019-01-11T03:19:18.386Z,6.33
2019-01-11T03:21:58.393Z,7.07
2019-01-11T03:24:38.570Z,6.93
2019-01-11T03:27:18.437Z,6.93
2019-01-11T03:29:58.619Z,7.10
2019-01-11T03:32:38.741Z,7.43
2019-01-11T03:35:20.210Z,7.03
2019-01-11T03:38:00.736Z,7.73
2019-01-11T03:40:40.777Z,7.33
2019-01-11T03:43:08.550Z,7.57
2019-01-11T03:45:49.054Z,7.43
2019-01-11T03:48:28.874Z,7.33
2019-01-11T03:51:08.915Z,7.93
2019-01-11T03:53:48.840Z,7.90
2019-01-11T03:56:28.866Z,7.93
2019-01-11T03:59:09.108Z,7.40
2019-01-11T04:01:49.066Z,8.37
2019-01-11T04:04:29.370Z,7.87
2019-01-11T04:07:09.369Z,7.67
2019-01-11T04:09:49.644Z,7.60
2019-01-11T04:12:29.441Z,7.60
2019-01-11T04:15:10.211Z,8.47
2019-01-11T04:18:09.975Z,8.07
2019-01-11T04:20:50.694Z,7.90
2019-01-11T04:23:30.864Z,8.10
2019-01-11T04:26:10.936Z,8.20
2019-01-11T04:28:51.050Z,7.83
2019-01-11T04:31:31.183Z,8.07
2019-01-11T04:34:11.514Z,7.30
2019-01-11T04:36:51.439Z,8.30
2019-01-11T04:39:31.575Z,8.20
2019-01-11T04:42:12.204Z,8.50
2019-01-11T04:44:52.612Z,8.57
2019-01-11T04:47:32.841Z,8.03
2019-01-11T04:50:12.836Z,8.37
2019-01-11T04:52:52.885Z,8.67
2019-01-11T04:55:32.764Z,7.87
2019-01-11T04:58:12.785Z,8.43
2019-01-11T05:00:53.140Z,7.70
2019-01-11T05:03:33.757Z,8.07
2019-01-11T05:06:14.058Z,8.80
2019-01-11T05:08:54.181Z,8.40
2019-01-11T05:11:34.299Z,8.13
2019-01-11T05:14:14.320Z,7.57
2019-01-11T05:16:54.310Z,8.17
2019-01-11T05:19:34.485Z,8.50
2019-01-11T05:22:14.473Z,8.30
2019-01-11T05:24:54.398Z,7.53
2019-01-11T05:27:34.377Z,8.03
2019-01-11T05:30:14.635Z,7.67
2019-01-11T05:32:42.334Z,8.23
2019-01-11T05:35:22.858Z,7.67
2019-01-11T05:38:02.994Z,8.23
2019-01-11T05:40:42.949Z,7.37
2019-01-11T05:43:22.927Z,7.80
2019-01-11T05:46:04.067Z,7.70
2019-01-11T05:48:43.983Z,8.00
2019-01-11T05:51:23.990Z,7.17
2019-01-11T05:54:04.106Z,7.77
2019-01-11T05:56:44.172Z,8.03
2019-01-11T05:59:24.307Z,8.23
2019-01-11T06:02:04.311Z,7.80
2019-01-11T06:04:47.073Z,9.23
2019-01-11T06:07:31.370Z,8.73
2019-01-11T06:10:13.912Z,8.67
2019-01-11T06:15:53.014Z,8.70
2019-01-11T06:18:33.100Z,9.30
2019-01-11T06:21:13.542Z,9.10
2019-01-11T06:23:53.321Z,8.57
2019-01-11T06:26:33.342Z,8.63
2019-01-11T06:29:13.286Z,9.33
2019-01-11T06:31:54.540Z,9.00
2019-01-11T06:34:34.744Z,9.07
2019-01-11T06:37:14.669Z,9.30
2019-01-11T06:39:54.938Z,9.50
2019-01-11T06:42:34.882Z,9.40
2019-01-11T06:45:14.833Z,9.57
2019-01-11T06:47:54.770Z,9.00
2019-01-11T06:50:36.593Z,9.90
2019-01-11T06:53:16.950Z,9.90
2019-01-11T06:55:57.148Z,9.80
2019-01-11T06:58:37.106Z,9.57
2019-01-11T07:01:17.057Z,9.63
2019-01-11T07:03:57.237Z,10.17
2019-01-11T07:06:37.455Z,10.67
2019-01-11T07:09:17.610Z,9.67
2019-01-11T07:11:57.979Z,10.57
2019-01-11T07:14:38.553Z,10.50
2019-01-11T07:17:19.214Z,9.43
2019-01-11T07:20:05.365Z,10.43
2019-01-11T07:22:41.405Z,10.43
2019-01-11T07:25:21.585Z,10.20
2019-01-11T07:28:01.980Z,10.20
2019-01-11T07:33:59.932Z,9.70
2019-01-11T07:36:45.504Z,10.10
2019-01-11T07:39:27.618Z,10.00
2019-01-11T07:42:08.189Z,9.87
2019-01-11T07:44:48.122Z,9.77
2019-01-11T07:47:28.138Z,9.90
2019-01-11T07:50:09.336Z,10.13
2019-01-11T07:52:49.375Z,9.80
2019-01-11T07:55:29.364Z,10.30
2019-01-11T07:58:09.248Z,9.43
2019-01-11T08:00:49.433Z,10.33
2019-01-11T08:03:29.315Z,9.37
2019-01-11T08:06:09.446Z,9.70
2019-01-11T08:08:50.658Z,9.10
2019-01-11T08:11:30.662Z,9.13
2019-01-11T08:14:10.594Z,9.60
2019-01-11T08:16:50.574Z,9.20
2019-01-11T08:19:30.729Z,10.23
2019-01-11T08:25:56.418Z,9.50
2019-01-11T08:28:40.078Z,10.13
2019-01-11T08:31:20.502Z,10.27
2019-01-11T08:34:00.533Z,11.13
2019-01-11T08:36:40.745Z,10.50
2019-01-11T08:39:20.766Z,10.13
2019-01-11T08:42:00.869Z,10.70
2019-01-11T08:44:40.963Z,9.63
2019-01-11T08:47:21.069Z,10.80
2019-01-11T08:50:01.730Z,10.80
2019-01-11T08:52:42.821Z,10.53
2019-01-11T08:55:22.886Z,10.93
2019-01-11T08:58:05.545Z,11.40
2019-01-11T09:00:45.990Z,11.50
2019-01-11T09:03:26.674Z,11.97
2019-01-11T09:06:06.785Z,12.00
2019-01-11T09:08:46.747Z,12.00
2019-01-11T09:11:26.837Z,12.03
2019-01-11T09:14:08.865Z,12.20
2019-01-11T09:19:52.695Z,12.83
2019-01-11T09:22:32.549Z,13.13
2019-01-11T09:25:12.693Z,13.30
2019-01-11T09:27:52.822Z,11.97
2019-01-11T09:30:32.746Z,13.00
2019-01-11T09:33:12.842Z,13.60
2019-01-11T09:35:53.006Z,13.83
2019-01-11T09:38:33.047Z,13.87
2019-01-11T09:41:13.081Z,12.90
2019-01-11T09:43:53.030Z,13.00
2019-01-11T09:46:33.277Z,13.40
2019-01-11T09:49:13.461Z,12.93
2019-01-11T09:51:53.663Z,14.07
2019-01-11T09:54:33.810Z,13.93
2019-01-11T09:57:13.806Z,13.17
2019-01-11T09:59:54.087Z,13.37
2019-01-11T10:02:44.649Z,13.57
2019-01-11T10:05:25.153Z,13.03
2019-01-11T10:08:05.198Z,14.07
2019-01-11T10:10:45.485Z,14.63
2019-01-11T10:13:25.402Z,12.77
2019-01-11T10:16:08.698Z,12.47
2019-01-11T10:18:48.496Z,13.37
2019-01-11T10:21:28.702Z,14.03
2019-01-11T10:24:08.650Z,13.50
2019-01-11T10:26:48.886Z,14.40
2019-01-11T10:29:29.001Z,14.27
2019-01-11T10:32:09.397Z,14.60
2019-01-11T10:34:49.271Z,13.87
2019-01-11T10:37:29.153Z,13.43
2019-01-11T10:40:09.231Z,14.50
2019-01-11T10:42:49.705Z,14.83
2019-01-11T10:45:30.230Z,13.77
2019-01-11T10:48:10.457Z,14.70
2019-01-11T10:50:50.440Z,14.13
2019-01-11T10:53:30.531Z,12.90
2019-01-11T10:56:10.735Z,12.50
2019-01-11T10:58:51.533Z,13.13
2019-01-11T11:01:31.990Z,13.37
2019-01-11T11:04:12.093Z,12.60
2019-01-11T11:06:52.202Z,11.13
2019-01-11T11:09:32.522Z,12.87
2019-01-11T11:12:16.253Z,12.27
2019-01-11T11:14:56.375Z,12.73
2019-01-11T11:17:36.931Z,12.40
2019-01-11T11:20:16.797Z,12.63
2019-01-11T11:22:57.218Z,12.80
2019-01-11T11:25:37.134Z,11.50
2019-01-11T11:28:17.245Z,12.40
2019-01-11T11:30:57.409Z,12.93
2019-01-11T11:33:37.609Z,12.60
2019-01-11T11:36:17.682Z,13.33
2019-01-11T11:38:59.171Z,12.93
2019-01-11T11:41:39.916Z,13.37
2019-01-11T11:44:20.915Z,13.27
2019-01-11T11:47:00.922Z,13.20
2019-01-11T11:49:41.499Z,13.63
2019-01-11T11:55:03.542Z,13.63
2019-01-11T11:57:43.665Z,13.37
2019-01-11T12:00:27.942Z,12.73
2019-01-11T12:03:07.946Z,12.90
2019-01-11T12:05:48.062Z,13.70
2019-01-11T12:08:28.145Z,13.60
2019-01-11T12:11:08.158Z,12.23
2019-01-11T12:13:48.323Z,12.40
2019-01-11T12:16:28.353Z,12.47
2019-01-11T12:19:08.247Z,12.77
2019-01-11T12:21:48.355Z,12.57
2019-01-11T12:24:16.043Z,12.37
2019-01-11T12:26:56.389Z,12.43
2019-01-11T12:29:36.382Z,13.23
2019-01-11T12:32:19.684Z,12.43
2019-01-11T12:34:47.161Z,13.37
2019-01-11T12:37:27.274Z,12.93
2019-01-11T12:40:07.413Z,12.03
2019-01-11T12:42:47.310Z,13.67
2019-01-11T12:45:27.510Z,12.33
2019-01-11T12:48:07.550Z,12.60
2019-01-11T12:50:51.466Z,13.23
2019-01-11T12:53:31.980Z,12.47
2019-01-11T12:56:12.049Z,14.17
2019-01-11T12:58:51.977Z,13.53
2019-01-11T13:01:32.105Z,13.37
2019-01-11T13:04:12.458Z,13.97
2019-01-11T13:06:52.499Z,14.43
2019-01-11T13:09:32.566Z,14.17
2019-01-11T13:12:00.414Z,14.27
2019-01-11T13:14:40.457Z,14.87
2019-01-11T13:17:20.686Z,15.43
2019-01-11T13:22:59.950Z,13.83
2019-01-11T13:25:40.165Z,15.03
2019-01-11T13:28:20.375Z,15.50
2019-01-11T13:31:00.479Z,14.87
2019-01-11T13:33:40.487Z,15.50
2019-01-11T13:36:22.160Z,15.70
2019-01-11T13:39:04.384Z,15.63
2019-01-11T13:41:45.707Z,15.30
2019-01-11T13:44:25.852Z,15.87
2019-01-11T13:47:05.846Z,16.13
2019-01-11T13:49:45.749Z,19.63
2019-01-11T13:52:25.831Z,16.70
2019-01-11T13:55:06.325Z,16.90
2019-01-11T13:57:46.267Z,15.03
2019-01-11T14:00:26.523Z,15.30
2019-01-11T14:03:06.653Z,16.47
2019-01-11T14:05:46.671Z,16.93
2019-01-11T14:08:26.745Z,17.90
2019-01-11T14:11:06.668Z,17.27
2019-01-11T14:13:48.207Z,16.77
2019-01-11T14:16:28.881Z,17.87
2019-01-11T14:19:08.975Z,16.23
2019-01-11T14:21:49.038Z,16.70
2019-01-11T14:24:29.159Z,17.53
2019-01-11T14:27:09.469Z,16.93
2019-01-11T14:29:49.448Z,15.93
2019-01-11T14:32:30.476Z,15.37
2019-01-11T14:38:13.758Z,15.90
2019-01-11T14:40:54.072Z,15.97
2019-01-11T14:43:33.986Z,16.03
2019-01-11T14:46:01.808Z,15.67
2019-01-11T14:48:48.955Z,15.47
2019-01-11T14:51:29.098Z,15.43
2019-01-11T14:54:09.354Z,15.37
2019-01-11T14:56:49.581Z,14.40
2019-01-11T14:59:29.463Z,13.70
2019-01-11T15:02:09.578Z,14.70
2019-01-11T15:04:49.541Z,14.07
2019-01-11T15:07:29.782Z,13.67
2019-01-11T15:10:10.073Z,13.43
2019-01-11T15:12:50.054Z,13.33
2019-01-11T15:15:30.070Z,13.33
2019-01-11T15:18:10.440Z,12.80
2019-01-11T15:20:50.821Z,14.27
2019-01-11T15:23:35.042Z,13.30
2019-01-11T15:26:15.633Z,12.97
2019-01-11T15:28:55.670Z,12.57
2019-01-11T15:31:35.748Z,12.67
2019-01-11T15:34:15.770Z,14.53
2019-01-11T15:36:56.109Z,13.33
2019-01-11T15:39:23.797Z,13.97
2019-01-11T15:42:10.912Z,12.37
2019-01-11T15:44:51.571Z,13.40
2019-01-11T15:47:19.293Z,15.37
2019-01-11T15:49:46.971Z,15.13
2019-01-11T15:52:33.196Z,14.23
2019-01-11T15:55:09.690Z,14.43
2019-01-11T15:57:49.682Z,14.40
2019-01-11T16:00:29.771Z,15.83
2019-01-11T16:03:09.903Z,15.60
2019-01-11T16:05:50.053Z,15.70
2019-01-11T16:08:30.150Z,16.17
2019-01-11T16:11:10.015Z,17.20
2019-01-11T16:13:49.957Z,15.50
2019-01-11T16:16:29.971Z,16.50
2019-01-11T16:18:57.983Z,16.03
2019-01-11T16:21:37.906Z,17.43
2019-01-11T16:24:18.017Z,17.40
2019-01-11T16:26:58.135Z,17.00
2019-01-11T16:29:38.222Z,16.97
2019-01-11T16:32:18.222Z,17.37
2019-01-11T16:34:58.500Z,15.83
2019-01-11T16:37:38.713Z,16.50
2019-01-11T16:40:18.850Z,16.97
2019-01-11T16:43:00.047Z,17.33
2019-01-11T16:45:40.318Z,15.87
2019-01-11T16:48:23.998Z,16.00
2019-01-11T16:51:05.617Z,17.50
2019-01-11T16:53:45.938Z,17.67
2019-01-11T16:56:26.104Z,28.60
2019-01-11T16:59:07.468Z,18.03
2019-01-11T17:01:47.469Z,14.60
2019-01-11T17:04:28.602Z,14.27
2019-01-11T17:06:56.277Z,13.17
2019-01-11T17:09:43.422Z,12.83
2019-01-11T17:12:11.153Z,12.37
2019-01-11T17:14:38.823Z,12.77
2019-01-11T17:17:06.483Z,13.53
2019-01-11T17:19:34.144Z,12.33
2019-01-11T17:22:01.904Z,13.67
2019-01-11T17:24:29.715Z,11.60
2019-01-11T17:26:57.404Z,12.83
2019-01-11T17:29:25.113Z,13.50
2019-01-11T17:31:52.773Z,14.50
2019-01-11T17:34:20.461Z,16.50
2019-01-11T17:36:48.173Z,14.57
2019-01-11T17:39:15.865Z,15.40
2019-01-11T17:41:43.726Z,19.00
2019-01-11T17:44:11.462Z,16.80
2019-01-11T17:46:39.140Z,14.23
2019-01-11T17:49:06.849Z,14.33
2019-01-11T17:51:34.490Z,15.50
2019-01-11T17:54:02.208Z,17.50
2019-01-11T17:56:30.088Z,15.40
2019-01-11T17:58:57.785Z,15.67
2019-01-11T18:01:25.469Z,16.70
2019-01-11T18:03:53.176Z,16.03
2019-01-11T18:06:21.088Z,17.07
2019-01-11T18:08:48.845Z,17.97
2019-01-11T18:11:16.550Z,17.27
2019-01-11T18:13:44.322Z,17.00
2019-01-11T18:16:11.984Z,17.33
2019-01-11T18:18:39.775Z,19.67
2019-01-11T18:21:07.606Z,20.17
2019-01-11T18:23:35.543Z,18.97
2019-01-11T18:26:03.386Z,17.87
2019-01-11T18:28:31.152Z,18.70
2019-01-11T18:30:58.944Z,17.33
2019-01-11T18:33:26.857Z,19.33
2019-01-11T18:35:54.657Z,19.33
2019-01-11T18:38:22.481Z,19.10
2019-01-11T18:40:50.241Z,19.07
2019-01-11T18:43:18.129Z,19.07
2019-01-11T18:45:45.834Z,17.10
2019-01-11T18:48:13.575Z,19.97
2019-01-11T18:50:41.253Z,17.70
2019-01-11T18:53:13.767Z,20.23
2019-01-11T18:55:38.627Z,19.07
2019-01-11T18:58:06.369Z,17.47
2019-01-11T19:00:34.109Z,18.50
2019-01-11T19:03:01.790Z,18.20
2019-01-11T19:05:29.497Z,16.87
2019-01-11T19:07:57.285Z,16.53
2019-01-11T19:10:25.271Z,16.90
2019-01-11T19:12:53.080Z,20.33
2019-01-11T19:15:23.805Z,18.70
2019-01-11T19:17:51.562Z,17.83
2019-01-11T19:20:21.628Z,17.40
2019-01-11T19:22:49.280Z,17.97
2019-01-11T19:25:16.966Z,19.00
2019-01-11T19:27:57.045Z,19.20
2019-01-11T19:30:36.990Z,19.17
2019-01-11T19:33:17.067Z,18.40
2019-01-11T19:35:58.323Z,17.17
2019-01-11T19:38:38.521Z,16.70
2019-01-11T19:41:20.067Z,18.13
2019-01-11T19:44:01.566Z,15.03
2019-01-11T19:46:43.399Z,16.40
2019-01-11T19:49:24.282Z,17.00
2019-01-11T19:52:04.246Z,16.73
2019-01-11T19:57:25.473Z,14.23
2019-01-11T20:00:05.430Z,14.60
2019-01-11T20:02:46.482Z,14.17
2019-01-11T20:05:26.437Z,13.87
2019-01-11T20:08:07.419Z,13.80
2019-01-11T20:10:47.513Z,14.07
2019-01-11T20:13:27.777Z,13.00
2019-01-11T20:16:08.698Z,12.33
2019-01-11T20:18:49.295Z,13.40
2019-01-11T20:21:29.213Z,12.23
2019-01-11T20:24:09.322Z,12.97
2019-01-11T20:26:49.502Z,13.07
2019-01-11T20:29:29.756Z,13.10
2019-01-11T20:32:09.934Z,13.20
2019-01-11T20:34:49.911Z,13.33
2019-01-11T20:37:30.269Z,13.17
2019-01-11T20:40:10.528Z,15.67
2019-01-11T20:42:50.499Z,13.47
2019-01-11T20:45:30.517Z,13.60
2019-01-11T20:48:10.862Z,13.83
2019-01-11T20:50:51.066Z,13.37
2019-01-11T20:53:42.403Z,14.30
2019-01-11T20:56:23.028Z,13.00
2019-01-11T20:58:54.833Z,13.07
2019-01-11T21:01:26.165Z,14.60
2019-01-11T21:03:54.110Z,15.33
2019-01-11T21:06:21.843Z,14.03
2019-01-11T21:08:49.716Z,14.17
2019-01-11T21:11:17.400Z,14.17
2019-01-11T21:13:45.072Z,14.37
2019-01-11T21:16:12.789Z,15.57
2019-01-11T21:18:40.491Z,14.13
2019-01-11T21:21:08.430Z,14.17
2019-01-11T21:23:36.218Z,15.33
2019-01-11T21:26:04.013Z,13.80
2019-01-11T21:28:31.724Z,14.90
2019-01-11T21:30:59.390Z,15.07
2019-01-11T21:33:27.024Z,14.60
2019-01-11T21:35:54.669Z,13.80
2019-01-11T21:38:22.393Z,13.60
2019-01-11T21:40:51.074Z,15.00
2019-01-11T21:43:18.805Z,13.03
2019-01-11T21:45:46.660Z,14.87
2019-01-11T21:48:14.433Z,12.77
2019-01-11T21:50:42.132Z,13.20
2019-01-11T21:53:09.890Z,14.93
2019-01-11T21:55:38.739Z,15.10
2019-01-11T21:58:06.694Z,14.57
2019-01-11T22:00:45.185Z,13.30
2019-01-11T22:03:17.788Z,13.90
2019-01-11T22:05:45.589Z,15.07
2019-01-11T22:08:13.417Z,15.97
2019-01-11T22:10:41.159Z,15.50
2019-01-11T22:13:08.835Z,13.87
2019-01-11T22:15:36.498Z,14.53
2019-01-11T22:18:16.920Z,13.53
2019-01-11T22:20:56.898Z,13.10
2019-01-11T22:23:37.049Z,14.50
2019-01-11T22:26:16.865Z,14.27
2019-01-11T22:28:57.170Z,13.53
2019-01-11T22:31:37.155Z,13.60
2019-01-11T22:34:21.266Z,13.30
2019-01-11T22:37:01.372Z,13.60
2019-01-11T22:39:41.581Z,13.50
2019-01-11T22:42:21.743Z,13.83
2019-01-11T22:45:01.727Z,14.60
2019-01-11T22:47:42.817Z,15.37
2019-01-11T22:50:22.870Z,15.13
2019-01-11T22:55:31.072Z,14.83
2019-01-11T22:58:11.091Z,14.73
2019-01-11T23:01:17.808Z,14.60
2019-01-11T23:03:58.466Z,13.27
2019-01-11T23:06:38.554Z,14.43
2019-01-11T23:09:18.566Z,15.90
2019-01-11T23:11:58.612Z,14.93
2019-01-11T23:14:38.778Z,13.90
2019-01-11T23:17:18.773Z,14.27
2019-01-11T23:19:58.832Z,15.27
2019-01-11T23:22:39.102Z,15.03
2019-01-11T23:25:19.139Z,15.40
2019-01-11T23:27:59.470Z,16.83
2019-01-11T23:30:39.342Z,15.87
2019-01-11T23:36:00.459Z,17.50
2019-01-11T23:38:40.589Z,17.23
2019-01-11T23:41:20.733Z,17.67
2019-01-11T23:44:01.451Z,17.07
2019-01-11T23:46:41.905Z,18.20
2019-01-11T23:49:22.221Z,18.23
2019-01-11T23:52:02.229Z,17.87
2019-01-11T23:54:42.293Z,16.83
2019-01-11T23:57:22.497Z,17.67
